sensor_id;sensor_type;location;lat;lon;timestamp;P1;durP1;ratioP1;P2;durP2;ratioP2
76640;SDS011;65538;50.798;6.064;2023-05-10T00:01:50;43.90;;;19.47;;
76640;SDS011;65538;50.798;6.064;2023-05-10T00:04:15;41.43;;;18.57;;
76640;SDS011;65538;50.798;6.064;2023-05-10T00:06:40;46.43;;;20.90;;
76640;SDS011;65538;50.798;6.064;2023-05-10T00:09:06;41.33;;;18.17;;
76640;SDS011;65538;50.798;6.064;2023-05-10T00:11:31;39.47;;;16.30;;
76640;SDS011;65538;50.798;6.064;2023-05-10T00:13:56;46.33;;;20.20;;
76640;SDS011;65538;50.798;6.064;2023-05-10T00:16:21;47.13;;;17.63;;
76640;SDS011;65538;50.798;6.064;2023-05-10T00:18:47;40.80;;;18.30;;
76640;SDS011;65538;50.798;6.064;2023-05-10T00:21:12;45.87;;;19.77;;
76640;SDS011;65538;50.798;6.064;2023-05-10T00:23:37;44.60;;;18.97;;
76640;SDS011;65538;50.798;6.064;2023-05-10T00:26:03;41.30;;;19.67;;
76640;SDS011;65538;50.798;6.064;2023-05-10T00:28:28;45.25;;;19.00;;
76640;SDS011;65538;50.798;6.064;2023-05-10T00:30:54;42.80;;;18.48;;
76640;SDS011;65538;50.798;6.064;2023-05-10T00:33:19;41.55;;;18.90;;
76640;SDS011;65538;50.798;6.064;2023-05-10T00:35:44;43.33;;;18.87;;
76640;SDS011;65538;50.798;6.064;2023-05-10T00:38:10;39.50;;;18.43;;
76640;SDS011;65538;50.798;6.064;2023-05-10T00:40:35;35.75;;;16.88;;
76640;SDS011;65538;50.798;6.064;2023-05-10T00:43:01;28.88;;;15.88;;
76640;SDS011;65538;50.798;6.064;2023-05-10T00:45:26;33.23;;;16.43;;
76640;SDS011;65538;50.798;6.064;2023-05-10T00:47:52;29.97;;;14.73;;
76640;SDS011;65538;50.798;6.064;2023-05-10T00:50:20;32.15;;;15.23;;
76640;SDS011;65538;50.798;6.064;2023-05-10T00:52:45;29.40;;;15.07;;
76640;SDS011;65538;50.798;6.064;2023-05-10T00:55:10;23.83;;;14.10;;
76640;SDS011;65538;50.798;6.064;2023-05-10T00:57:36;24.58;;;14.43;;
76640;SDS011;65538;50.798;6.064;2023-05-10T01:00:02;26.67;;;14.37;;
76640;SDS011;65538;50.798;6.064;2023-05-10T01:02:27;24.92;;;12.90;;
76640;SDS011;65538;50.798;6.064;2023-05-10T01:04:53;22.95;;;13.07;;
76640;SDS011;65538;50.798;6.064;2023-05-10T01:07:19;20.88;;;11.10;;
76640;SDS011;65538;50.798;6.064;2023-05-10T01:09:44;23.03;;;12.87;;
76640;SDS011;65538;50.798;6.064;2023-05-10T01:12:10;23.70;;;13.20;;
76640;SDS011;65538;50.798;6.064;2023-05-10T01:14:35;25.87;;;15.27;;
76640;SDS011;65538;50.798;6.064;2023-05-10T01:17:01;24.38;;;14.02;;
76640;SDS011;65538;50.798;6.064;2023-05-10T01:19:27;25.75;;;15.50;;
76640;SDS011;65538;50.798;6.064;2023-05-10T01:22:00;27.08;;;11.57;;
76640;SDS011;65538;50.798;6.064;2023-05-10T01:24:38;23.80;;;13.65;;
76640;SDS011;65538;50.798;6.064;2023-05-10T01:37:21;25.17;;;14.27;;
76640;SDS011;65538;50.798;6.064;2023-05-10T01:42:47;24.55;;;13.25;;
76640;SDS011;65538;50.798;6.064;2023-05-10T01:45:19;23.98;;;13.20;;
76640;SDS011;65538;50.798;6.064;2023-05-10T01:47:50;21.83;;;12.05;;
76640;SDS011;65538;50.798;6.064;2023-05-10T01:50:18;24.02;;;12.20;;
76640;SDS011;65538;50.798;6.064;2023-05-10T01:52:46;28.30;;;13.82;;
76640;SDS011;65538;50.798;6.064;2023-05-10T01:55:14;18.98;;;10.65;;
76640;SDS011;65538;50.798;6.064;2023-05-10T01:57:40;19.75;;;11.23;;
76640;SDS011;65538;50.798;6.064;2023-05-10T02:00:07;16.65;;;8.90;;
76640;SDS011;65538;50.798;6.064;2023-05-10T02:02:35;14.90;;;8.05;;
76640;SDS011;65538;50.798;6.064;2023-05-10T02:05:01;19.40;;;10.40;;
76640;SDS011;65538;50.798;6.064;2023-05-10T02:07:28;17.38;;;10.70;;
76640;SDS011;65538;50.798;6.064;2023-05-10T02:09:53;21.63;;;9.63;;
76640;SDS011;65538;50.798;6.064;2023-05-10T02:12:19;17.73;;;10.73;;
76640;SDS011;65538;50.798;6.064;2023-05-10T02:14:45;16.55;;;8.18;;
76640;SDS011;65538;50.798;6.064;2023-05-10T02:17:11;18.40;;;10.80;;
76640;SDS011;65538;50.798;6.064;2023-05-10T02:19:38;17.67;;;11.27;;
76640;SDS011;65538;50.798;6.064;2023-05-10T02:22:03;24.15;;;10.65;;
76640;SDS011;65538;50.798;6.064;2023-05-10T02:24:30;19.27;;;11.07;;
76640;SDS011;65538;50.798;6.064;2023-05-10T02:26:56;20.08;;;11.27;;
76640;SDS011;65538;50.798;6.064;2023-05-10T02:29:23;20.27;;;11.27;;
76640;SDS011;65538;50.798;6.064;2023-05-10T02:31:49;18.70;;;10.63;;
76640;SDS011;65538;50.798;6.064;2023-05-10T02:34:16;22.55;;;11.60;;
76640;SDS011;65538;50.798;6.064;2023-05-10T02:36:41;23.70;;;11.43;;
76640;SDS011;65538;50.798;6.064;2023-05-10T02:39:07;22.55;;;11.73;;
76640;SDS011;65538;50.798;6.064;2023-05-10T02:41:37;25.63;;;12.48;;
76640;SDS011;65538;50.798;6.064;2023-05-10T02:44:03;21.20;;;11.90;;
76640;SDS011;65538;50.798;6.064;2023-05-10T02:46:31;25.58;;;12.45;;
76640;SDS011;65538;50.798;6.064;2023-05-10T02:48:56;26.80;;;15.50;;
76640;SDS011;65538;50.798;6.064;2023-05-10T02:51:24;24.17;;;11.77;;
76640;SDS011;65538;50.798;6.064;2023-05-10T02:53:49;33.60;;;14.40;;
76640;SDS011;65538;50.798;6.064;2023-05-10T02:56:23;20.33;;;10.38;;
76640;SDS011;65538;50.798;6.064;2023-05-10T02:58:50;29.58;;;11.77;;
76640;SDS011;65538;50.798;6.064;2023-05-10T03:01:15;34.30;;;14.43;;
76640;SDS011;65538;50.798;6.064;2023-05-10T03:03:40;33.80;;;15.37;;
76640;SDS011;65538;50.798;6.064;2023-05-10T03:06:06;31.67;;;13.48;;
76640;SDS011;65538;50.798;6.064;2023-05-10T03:08:31;29.10;;;14.07;;
76640;SDS011;65538;50.798;6.064;2023-05-10T03:11:18;30.13;;;14.70;;
76640;SDS011;65538;50.798;6.064;2023-05-10T03:13:52;27.90;;;13.40;;
76640;SDS011;65538;50.798;6.064;2023-05-10T03:16:22;32.47;;;13.77;;
76640;SDS011;65538;50.798;6.064;2023-05-10T03:18:54;29.52;;;12.25;;
76640;SDS011;65538;50.798;6.064;2023-05-10T03:21:22;26.40;;;12.73;;
76640;SDS011;65538;50.798;6.064;2023-05-10T03:23:50;24.58;;;11.63;;
76640;SDS011;65538;50.798;6.064;2023-05-10T03:26:26;28.42;;;11.45;;
76640;SDS011;65538;50.798;6.064;2023-05-10T03:28:51;29.67;;;12.75;;
76640;SDS011;65538;50.798;6.064;2023-05-10T03:31:17;25.13;;;11.10;;
76640;SDS011;65538;50.798;6.064;2023-05-10T03:33:46;27.83;;;12.30;;
76640;SDS011;65538;50.798;6.064;2023-05-10T03:36:12;24.98;;;10.55;;
76640;SDS011;65538;50.798;6.064;2023-05-10T03:38:37;26.43;;;10.87;;
76640;SDS011;65538;50.798;6.064;2023-05-10T03:41:02;23.87;;;11.50;;
76640;SDS011;65538;50.798;6.064;2023-05-10T03:43:27;26.17;;;10.90;;
76640;SDS011;65538;50.798;6.064;2023-05-10T03:45:52;24.80;;;11.77;;
76640;SDS011;65538;50.798;6.064;2023-05-10T03:48:18;22.93;;;10.27;;
76640;SDS011;65538;50.798;6.064;2023-05-10T03:50:43;25.67;;;10.73;;
76640;SDS011;65538;50.798;6.064;2023-05-10T03:53:08;23.43;;;10.00;;
76640;SDS011;65538;50.798;6.064;2023-05-10T03:55:33;22.60;;;10.47;;
76640;SDS011;65538;50.798;6.064;2023-05-10T03:58:01;25.73;;;10.75;;
76640;SDS011;65538;50.798;6.064;2023-05-10T04:00:26;23.60;;;10.23;;
76640;SDS011;65538;50.798;6.064;2023-05-10T04:02:51;27.03;;;12.00;;
76640;SDS011;65538;50.798;6.064;2023-05-10T04:05:16;24.00;;;11.63;;
76640;SDS011;65538;50.798;6.064;2023-05-10T04:07:41;24.80;;;12.77;;
76640;SDS011;65538;50.798;6.064;2023-05-10T04:10:09;18.95;;;10.45;;
76640;SDS011;65538;50.798;6.064;2023-05-10T04:12:34;27.90;;;12.80;;
76640;SDS011;65538;50.798;6.064;2023-05-10T04:14:59;28.10;;;12.20;;
76640;SDS011;65538;50.798;6.064;2023-05-10T04:17:25;24.02;;;12.18;;
76640;SDS011;65538;50.798;6.064;2023-05-10T04:19:50;24.40;;;11.13;;
76640;SDS011;65538;50.798;6.064;2023-05-10T04:22:17;26.90;;;12.23;;
76640;SDS011;65538;50.798;6.064;2023-05-10T04:24:43;23.73;;;11.93;;
76640;SDS011;65538;50.798;6.064;2023-05-10T04:27:08;26.17;;;11.97;;
76640;SDS011;65538;50.798;6.064;2023-05-10T04:29:33;24.97;;;11.90;;
76640;SDS011;65538;50.798;6.064;2023-05-10T04:31:58;26.37;;;12.80;;
76640;SDS011;65538;50.798;6.064;2023-05-10T04:34:23;29.90;;;13.50;;
76640;SDS011;65538;50.798;6.064;2023-05-10T04:36:49;25.27;;;11.50;;
76640;SDS011;65538;50.798;6.064;2023-05-10T04:39:14;24.50;;;12.03;;
76640;SDS011;65538;50.798;6.064;2023-05-10T04:41:39;25.20;;;11.80;;
76640;SDS011;65538;50.798;6.064;2023-05-10T04:44:05;22.37;;;12.47;;
76640;SDS011;65538;50.798;6.064;2023-05-10T04:46:30;25.35;;;11.98;;
76640;SDS011;65538;50.798;6.064;2023-05-10T04:48:55;25.20;;;10.60;;
76640;SDS011;65538;50.798;6.064;2023-05-10T04:51:20;22.27;;;8.97;;
76640;SDS011;65538;50.798;6.064;2023-05-10T04:53:45;27.50;;;12.43;;
76640;SDS011;65538;50.798;6.064;2023-05-10T04:56:11;29.30;;;12.77;;
76640;SDS011;65538;50.798;6.064;2023-05-10T04:58:36;31.13;;;14.50;;
76640;SDS011;65538;50.798;6.064;2023-05-10T05:01:08;29.40;;;12.13;;
76640;SDS011;65538;50.798;6.064;2023-05-10T05:03:33;24.73;;;11.02;;
76640;SDS011;65538;50.798;6.064;2023-05-10T05:05:58;31.90;;;11.95;;
76640;SDS011;65538;50.798;6.064;2023-05-10T05:08:24;28.13;;;12.00;;
76640;SDS011;65538;50.798;6.064;2023-05-10T05:10:49;32.07;;;12.13;;
76640;SDS011;65538;50.798;6.064;2023-05-10T05:13:15;26.80;;;11.88;;
76640;SDS011;65538;50.798;6.064;2023-05-10T05:15:40;33.97;;;12.00;;
76640;SDS011;65538;50.798;6.064;2023-05-10T05:18:05;29.43;;;12.17;;
76640;SDS011;65538;50.798;6.064;2023-05-10T05:20:34;31.23;;;12.73;;
76640;SDS011;65538;50.798;6.064;2023-05-10T05:22:59;33.05;;;12.93;;
76640;SDS011;65538;50.798;6.064;2023-05-10T05:25:24;31.50;;;13.00;;
76640;SDS011;65538;50.798;6.064;2023-05-10T05:27:50;30.10;;;14.13;;
76640;SDS011;65538;50.798;6.064;2023-05-10T05:30:15;28.63;;;11.87;;
76640;SDS011;65538;50.798;6.064;2023-05-10T05:32:40;36.13;;;12.73;;
76640;SDS011;65538;50.798;6.064;2023-05-10T05:35:06;25.40;;;11.23;;
76640;SDS011;65538;50.798;6.064;2023-05-10T05:37:31;24.15;;;10.50;;
76640;SDS011;65538;50.798;6.064;2023-05-10T05:39:56;27.70;;;10.50;;
76640;SDS011;65538;50.798;6.064;2023-05-10T05:42:21;23.98;;;9.85;;
76640;SDS011;65538;50.798;6.064;2023-05-10T05:44:47;23.08;;;9.13;;
76640;SDS011;65538;50.798;6.064;2023-05-10T05:47:12;24.30;;;9.73;;
76640;SDS011;65538;50.798;6.064;2023-05-10T05:49:37;19.77;;;9.52;;
76640;SDS011;65538;50.798;6.064;2023-05-10T05:52:03;22.63;;;9.73;;
76640;SDS011;65538;50.798;6.064;2023-05-10T05:54:29;25.05;;;11.05;;
76640;SDS011;65538;50.798;6.064;2023-05-10T05:56:57;24.90;;;10.60;;
76640;SDS011;65538;50.798;6.064;2023-05-10T05:59:23;20.25;;;9.55;;
76640;SDS011;65538;50.798;6.064;2023-05-10T06:01:48;20.23;;;8.07;;
76640;SDS011;65538;50.798;6.064;2023-05-10T06:04:13;19.08;;;7.88;;
76640;SDS011;65538;50.798;6.064;2023-05-10T06:06:39;19.83;;;8.17;;
76640;SDS011;65538;50.798;6.064;2023-05-10T06:09:04;20.13;;;8.33;;
76640;SDS011;65538;50.798;6.064;2023-05-10T06:11:29;18.47;;;7.97;;
76640;SDS011;65538;50.798;6.064;2023-05-10T06:13:57;19.63;;;8.02;;
76640;SDS011;65538;50.798;6.064;2023-05-10T06:16:22;14.82;;;6.97;;
76640;SDS011;65538;50.798;6.064;2023-05-10T06:18:47;15.53;;;5.80;;
76640;SDS011;65538;50.798;6.064;2023-05-10T06:21:12;14.37;;;6.97;;
76640;SDS011;65538;50.798;6.064;2023-05-10T06:23:38;14.13;;;6.63;;
76640;SDS011;65538;50.798;6.064;2023-05-10T06:26:03;13.13;;;6.73;;
76640;SDS011;65538;50.798;6.064;2023-05-10T06:28:28;13.48;;;6.38;;
76640;SDS011;65538;50.798;6.064;2023-05-10T06:30:55;11.52;;;5.18;;
76640;SDS011;65538;50.798;6.064;2023-05-10T06:33:20;12.07;;;5.53;;
76640;SDS011;65538;50.798;6.064;2023-05-10T06:35:45;7.13;;;3.83;;
76640;SDS011;65538;50.798;6.064;2023-05-10T06:38:11;9.32;;;4.38;;
76640;SDS011;65538;50.798;6.064;2023-05-10T06:40:36;5.90;;;3.27;;
76640;SDS011;65538;50.798;6.064;2023-05-10T06:43:01;7.23;;;3.60;;
76640;SDS011;65538;50.798;6.064;2023-05-10T06:45:26;6.67;;;3.20;;
76640;SDS011;65538;50.798;6.064;2023-05-10T06:47:51;7.50;;;3.00;;
76640;SDS011;65538;50.798;6.064;2023-05-10T06:50:17;6.00;;;3.40;;
76640;SDS011;65538;50.798;6.064;2023-05-10T06:52:42;7.27;;;3.23;;
76640;SDS011;65538;50.798;6.064;2023-05-10T06:55:07;6.10;;;3.40;;
76640;SDS011;65538;50.798;6.064;2023-05-10T06:57:33;6.03;;;3.17;;
76640;SDS011;65538;50.798;6.064;2023-05-10T06:59:58;5.60;;;3.17;;
76640;SDS011;65538;50.798;6.064;2023-05-10T07:02:24;5.10;;;2.70;;
76640;SDS011;65538;50.798;6.064;2023-05-10T07:04:49;5.10;;;2.47;;
76640;SDS011;65538;50.798;6.064;2023-05-10T07:07:16;5.75;;;1.55;;
76640;SDS011;65538;50.798;6.064;2023-05-10T07:09:41;3.37;;;1.90;;
76640;SDS011;65538;50.798;6.064;2023-05-10T07:12:07;5.28;;;1.75;;
76640;SDS011;65538;50.798;6.064;2023-05-10T07:14:32;4.13;;;1.80;;
76640;SDS011;65538;50.798;6.064;2023-05-10T07:16:57;3.77;;;1.67;;
76640;SDS011;65538;50.798;6.064;2023-05-10T07:19:23;3.67;;;1.83;;
76640;SDS011;65538;50.798;6.064;2023-05-10T07:21:48;3.13;;;1.70;;
76640;SDS011;65538;50.798;6.064;2023-05-10T07:24:14;5.43;;;1.92;;
76640;SDS011;65538;50.798;6.064;2023-05-10T07:26:39;4.50;;;2.23;;
76640;SDS011;65538;50.798;6.064;2023-05-10T07:29:04;3.27;;;1.67;;
76640;SDS011;65538;50.798;6.064;2023-05-10T07:31:29;12.70;;;3.93;;
76640;SDS011;65538;50.798;6.064;2023-05-10T07:33:54;10.13;;;3.90;;
76640;SDS011;65538;50.798;6.064;2023-05-10T07:36:20;24.13;;;9.30;;
76640;SDS011;65538;50.798;6.064;2023-05-10T07:38:45;28.07;;;9.57;;
76640;SDS011;65538;50.798;6.064;2023-05-10T07:41:11;25.77;;;9.43;;
76640;SDS011;65538;50.798;6.064;2023-05-10T07:43:36;24.52;;;8.52;;
76640;SDS011;65538;50.798;6.064;2023-05-10T07:46:02;33.73;;;10.77;;
76640;SDS011;65538;50.798;6.064;2023-05-10T07:48:27;28.00;;;10.45;;
76640;SDS011;65538;50.798;6.064;2023-05-10T07:50:52;29.47;;;10.00;;
76640;SDS011;65538;50.798;6.064;2023-05-10T07:53:17;28.00;;;10.87;;
76640;SDS011;65538;50.798;6.064;2023-05-10T07:55:43;27.45;;;10.00;;
76640;SDS011;65538;50.798;6.064;2023-05-10T07:58:09;26.47;;;10.77;;
76640;SDS011;65538;50.798;6.064;2023-05-10T08:00:34;26.65;;;10.55;;
76640;SDS011;65538;50.798;6.064;2023-05-10T08:02:59;24.20;;;10.77;;
76640;SDS011;65538;50.798;6.064;2023-05-10T08:05:24;25.53;;;10.03;;
76640;SDS011;65538;50.798;6.064;2023-05-10T08:07:50;26.87;;;10.23;;
76640;SDS011;65538;50.798;6.064;2023-05-10T08:10:15;36.73;;;14.70;;
76640;SDS011;65538;50.798;6.064;2023-05-10T08:12:40;32.90;;;11.43;;
76640;SDS011;65538;50.798;6.064;2023-05-10T08:15:05;34.58;;;10.57;;
76640;SDS011;65538;50.798;6.064;2023-05-10T08:17:31;22.08;;;8.55;;
76640;SDS011;65538;50.798;6.064;2023-05-10T08:19:57;19.02;;;7.28;;
76640;SDS011;65538;50.798;6.064;2023-05-10T08:22:22;10.53;;;5.33;;
76640;SDS011;65538;50.798;6.064;2023-05-10T08:24:47;11.57;;;5.27;;
76640;SDS011;65538;50.798;6.064;2023-05-10T08:27:13;10.33;;;3.87;;
76640;SDS011;65538;50.798;6.064;2023-05-10T08:29:40;7.47;;;3.40;;
76640;SDS011;65538;50.798;6.064;2023-05-10T08:32:06;7.60;;;3.50;;
76640;SDS011;65538;50.798;6.064;2023-05-10T08:34:33;9.13;;;3.77;;
76640;SDS011;65538;50.798;6.064;2023-05-10T08:37:02;8.63;;;2.92;;
76640;SDS011;65538;50.798;6.064;2023-05-10T08:39:27;4.82;;;2.22;;
76640;SDS011;65538;50.798;6.064;2023-05-10T08:41:53;4.43;;;2.43;;
76640;SDS011;65538;50.798;6.064;2023-05-10T08:44:22;3.35;;;1.73;;
76640;SDS011;65538;50.798;6.064;2023-05-10T08:46:47;3.57;;;1.70;;
76640;SDS011;65538;50.798;6.064;2023-05-10T08:49:16;3.95;;;1.75;;
76640;SDS011;65538;50.798;6.064;2023-05-10T08:51:44;5.03;;;1.65;;
76640;SDS011;65538;50.798;6.064;2023-05-10T08:54:14;4.68;;;1.95;;
76640;SDS011;65538;50.798;6.064;2023-05-10T08:56:46;3.05;;;1.50;;
76640;SDS011;65538;50.798;6.064;2023-05-10T08:59:14;3.53;;;1.98;;
76640;SDS011;65538;50.798;6.064;2023-05-10T09:01:45;6.25;;;2.88;;
76640;SDS011;65538;50.798;6.064;2023-05-10T09:04:27;4.70;;;2.70;;
76640;SDS011;65538;50.798;6.064;2023-05-10T09:07:06;4.75;;;2.88;;
76640;SDS011;65538;50.798;6.064;2023-05-10T09:09:35;4.43;;;2.63;;
76640;SDS011;65538;50.798;6.064;2023-05-10T09:12:01;5.80;;;2.60;;
76640;SDS011;65538;50.798;6.064;2023-05-10T09:14:32;4.10;;;2.47;;
76640;SDS011;65538;50.798;6.064;2023-05-10T09:16:59;4.38;;;2.05;;
76640;SDS011;65538;50.798;6.064;2023-05-10T09:19:58;5.95;;;2.38;;
76640;SDS011;65538;50.798;6.064;2023-05-10T09:22:19;4.85;;;2.47;;
76640;SDS011;65538;50.798;6.064;2023-05-10T09:24:47;4.57;;;2.88;;
76640;SDS011;65538;50.798;6.064;2023-05-10T09:27:15;5.03;;;2.85;;
76640;SDS011;65538;50.798;6.064;2023-05-10T09:29:43;5.15;;;3.08;;
76640;SDS011;65538;50.798;6.064;2023-05-10T09:32:08;4.23;;;2.63;;
76640;SDS011;65538;50.798;6.064;2023-05-10T09:34:42;4.85;;;2.60;;
76640;SDS011;65538;50.798;6.064;2023-05-10T09:37:07;4.97;;;3.10;;
76640;SDS011;65538;50.798;6.064;2023-05-10T09:39:33;4.90;;;3.00;;
76640;SDS011;65538;50.798;6.064;2023-05-10T09:42:11;4.45;;;2.97;;
76640;SDS011;65538;50.798;6.064;2023-05-10T09:44:42;5.30;;;3.22;;
76640;SDS011;65538;50.798;6.064;2023-05-10T09:47:10;5.25;;;3.47;;
76640;SDS011;65538;50.798;6.064;2023-05-10T09:49:41;6.55;;;3.78;;
76640;SDS011;65538;50.798;6.064;2023-05-10T09:52:07;5.53;;;3.70;;
76640;SDS011;65538;50.798;6.064;2023-05-10T09:54:32;5.18;;;3.50;;
76640;SDS011;65538;50.798;6.064;2023-05-10T09:56:58;5.10;;;3.42;;
76640;SDS011;65538;50.798;6.064;2023-05-10T09:59:27;4.57;;;3.00;;
76640;SDS011;65538;50.798;6.064;2023-05-10T10:01:53;7.43;;;3.08;;
76640;SDS011;65538;50.798;6.064;2023-05-10T10:04:19;3.95;;;2.33;;
76640;SDS011;65538;50.798;6.064;2023-05-10T10:06:44;4.43;;;3.05;;
76640;SDS011;65538;50.798;6.064;2023-05-10T10:09:13;3.83;;;2.90;;
76640;SDS011;65538;50.798;6.064;2023-05-10T10:11:39;4.43;;;2.78;;
76640;SDS011;65538;50.798;6.064;2023-05-10T10:14:05;4.22;;;3.00;;
76640;SDS011;65538;50.798;6.064;2023-05-10T10:16:33;3.90;;;2.33;;
76640;SDS011;65538;50.798;6.064;2023-05-10T10:19:04;5.85;;;2.75;;
76640;SDS011;65538;50.798;6.064;2023-05-10T10:21:31;5.18;;;3.38;;
76640;SDS011;65538;50.798;6.064;2023-05-10T10:23:57;4.35;;;2.70;;
76640;SDS011;65538;50.798;6.064;2023-05-10T10:26:23;4.60;;;2.97;;
76640;SDS011;65538;50.798;6.064;2023-05-10T10:28:56;3.90;;;2.75;;
76640;SDS011;65538;50.798;6.064;2023-05-10T10:31:36;4.85;;;2.53;;
76640;SDS011;65538;50.798;6.064;2023-05-10T10:34:10;4.47;;;2.53;;
76640;SDS011;65538;50.798;6.064;2023-05-10T10:36:47;3.10;;;2.03;;
76640;SDS011;65538;50.798;6.064;2023-05-10T10:39:15;7.38;;;3.60;;
76640;SDS011;65538;50.798;6.064;2023-05-10T10:41:53;7.72;;;4.05;;
76640;SDS011;65538;50.798;6.064;2023-05-10T10:49:23;4.67;;;3.30;;
76640;SDS011;65538;50.798;6.064;2023-05-10T10:54:36;4.47;;;3.22;;
76640;SDS011;65538;50.798;6.064;2023-05-10T10:57:14;3.85;;;2.72;;
76640;SDS011;65538;50.798;6.064;2023-05-10T10:59:43;5.63;;;3.20;;
76640;SDS011;65538;50.798;6.064;2023-05-10T11:02:32;6.00;;;3.33;;
76640;SDS011;65538;50.798;6.064;2023-05-10T11:04:57;3.42;;;2.53;;
76640;SDS011;65538;50.798;6.064;2023-05-10T11:07:23;4.05;;;2.30;;
76640;SDS011;65538;50.798;6.064;2023-05-10T11:09:49;3.80;;;2.60;;
76640;SDS011;65538;50.798;6.064;2023-05-10T11:12:14;3.87;;;2.83;;
76640;SDS011;65538;50.798;6.064;2023-05-10T11:14:39;4.63;;;3.67;;
76640;SDS011;65538;50.798;6.064;2023-05-10T11:17:24;4.67;;;3.27;;
76640;SDS011;65538;50.798;6.064;2023-05-10T11:20:06;4.15;;;3.38;;
76640;SDS011;65538;50.798;6.064;2023-05-10T11:22:31;4.30;;;3.05;;
76640;SDS011;65538;50.798;6.064;2023-05-10T11:25:30;4.10;;;2.80;;
76640;SDS011;65538;50.798;6.064;2023-05-10T11:27:55;4.13;;;2.83;;
76640;SDS011;65538;50.798;6.064;2023-05-10T11:30:21;5.55;;;3.17;;
76640;SDS011;65538;50.798;6.064;2023-05-10T11:32:46;6.57;;;3.23;;
76640;SDS011;65538;50.798;6.064;2023-05-10T11:35:12;4.47;;;3.27;;
76640;SDS011;65538;50.798;6.064;2023-05-10T11:37:40;5.68;;;4.40;;
76640;SDS011;65538;50.798;6.064;2023-05-10T11:40:08;6.20;;;3.80;;
76640;SDS011;65538;50.798;6.064;2023-05-10T11:42:36;5.03;;;3.30;;
76640;SDS011;65538;50.798;6.064;2023-05-10T11:45:01;5.63;;;3.60;;
76640;SDS011;65538;50.798;6.064;2023-05-10T11:47:26;4.17;;;2.97;;
76640;SDS011;65538;50.798;6.064;2023-05-10T11:49:51;6.70;;;3.13;;
76640;SDS011;65538;50.798;6.064;2023-05-10T11:52:17;9.27;;;2.83;;
76640;SDS011;65538;50.798;6.064;2023-05-10T11:54:53;5.45;;;3.63;;
76640;SDS011;65538;50.798;6.064;2023-05-10T11:57:19;5.43;;;3.72;;
76640;SDS011;65538;50.798;6.064;2023-05-10T11:59:45;6.28;;;3.28;;
76640;SDS011;65538;50.798;6.064;2023-05-10T12:02:10;7.53;;;3.28;;
76640;SDS011;65538;50.798;6.064;2023-05-10T12:04:36;5.00;;;3.42;;
76640;SDS011;65538;50.798;6.064;2023-05-10T12:07:01;5.93;;;3.63;;
76640;SDS011;65538;50.798;6.064;2023-05-10T12:09:30;6.38;;;3.65;;
76640;SDS011;65538;50.798;6.064;2023-05-10T12:11:55;6.28;;;4.13;;
76640;SDS011;65538;50.798;6.064;2023-05-10T12:14:21;8.25;;;4.80;;
76640;SDS011;65538;50.798;6.064;2023-05-10T12:16:47;6.68;;;4.50;;
76640;SDS011;65538;50.798;6.064;2023-05-10T12:19:12;7.25;;;3.92;;
76640;SDS011;65538;50.798;6.064;2023-05-10T12:21:43;8.50;;;4.22;;
76640;SDS011;65538;50.798;6.064;2023-05-10T12:24:24;6.63;;;4.40;;
76640;SDS011;65538;50.798;6.064;2023-05-10T12:26:53;8.52;;;5.63;;
76640;SDS011;65538;50.798;6.064;2023-05-10T12:29:26;8.82;;;4.72;;
76640;SDS011;65538;50.798;6.064;2023-05-10T12:32:06;9.02;;;4.80;;
76640;SDS011;65538;50.798;6.064;2023-05-10T12:46:49;5.80;;;3.83;;
76640;SDS011;65538;50.798;6.064;2023-05-10T12:49:14;8.13;;;4.90;;
76640;SDS011;65538;50.798;6.064;2023-05-10T12:51:39;7.80;;;5.17;;
76640;SDS011;65538;50.798;6.064;2023-05-10T12:54:05;6.33;;;4.00;;
76640;SDS011;65538;50.798;6.064;2023-05-10T12:56:30;6.67;;;3.87;;
76640;SDS011;65538;50.798;6.064;2023-05-10T12:58:55;6.43;;;3.90;;
76640;SDS011;65538;50.798;6.064;2023-05-10T13:01:20;7.57;;;4.50;;
76640;SDS011;65538;50.798;6.064;2023-05-10T13:03:46;9.73;;;5.23;;
76640;SDS011;65538;50.798;6.064;2023-05-10T13:06:11;7.35;;;4.35;;
76640;SDS011;65538;50.798;6.064;2023-05-10T13:08:38;7.72;;;4.47;;
76640;SDS011;65538;50.798;6.064;2023-05-10T13:11:05;8.07;;;4.33;;
76640;SDS011;65538;50.798;6.064;2023-05-10T13:13:30;7.43;;;4.80;;
76640;SDS011;65538;50.798;6.064;2023-05-10T13:15:55;8.33;;;4.37;;
76640;SDS011;65538;50.798;6.064;2023-05-10T13:18:21;6.00;;;4.00;;
76640;SDS011;65538;50.798;6.064;2023-05-10T13:20:46;8.27;;;4.57;;
76640;SDS011;65538;50.798;6.064;2023-05-10T13:23:11;7.63;;;4.57;;
76640;SDS011;65538;50.798;6.064;2023-05-10T13:25:36;9.70;;;4.77;;
76640;SDS011;65538;50.798;6.064;2023-05-10T13:28:01;6.03;;;3.87;;
76640;SDS011;65538;50.798;6.064;2023-05-10T13:30:27;6.80;;;4.10;;
76640;SDS011;65538;50.798;6.064;2023-05-10T13:32:53;6.32;;;4.20;;
76640;SDS011;65538;50.798;6.064;2023-05-10T13:35:18;5.27;;;3.33;;
76640;SDS011;65538;50.798;6.064;2023-05-10T13:37:44;7.43;;;4.03;;
76640;SDS011;65538;50.798;6.064;2023-05-10T13:40:09;6.30;;;3.90;;
76640;SDS011;65538;50.798;6.064;2023-05-10T13:42:34;7.95;;;4.32;;
76640;SDS011;65538;50.798;6.064;2023-05-10T13:45:00;8.00;;;4.03;;
76640;SDS011;65538;50.798;6.064;2023-05-10T13:47:26;6.40;;;4.05;;
76640;SDS011;65538;50.798;6.064;2023-05-10T13:49:52;9.00;;;3.65;;
76640;SDS011;65538;50.798;6.064;2023-05-10T13:52:17;8.25;;;4.10;;
76640;SDS011;65538;50.798;6.064;2023-05-10T13:54:43;5.60;;;3.33;;
76640;SDS011;65538;50.798;6.064;2023-05-10T13:57:08;6.70;;;3.70;;
76640;SDS011;65538;50.798;6.064;2023-05-10T13:59:33;4.18;;;2.75;;
76640;SDS011;65538;50.798;6.064;2023-05-10T14:01:59;5.27;;;3.50;;
76640;SDS011;65538;50.798;6.064;2023-05-10T14:04:24;5.03;;;3.20;;
76640;SDS011;65538;50.798;6.064;2023-05-10T14:06:49;4.47;;;2.47;;
76640;SDS011;65538;50.798;6.064;2023-05-10T14:09:15;5.68;;;3.38;;
76640;SDS011;65538;50.798;6.064;2023-05-10T14:11:40;6.03;;;3.35;;
76640;SDS011;65538;50.798;6.064;2023-05-10T14:14:08;4.85;;;3.05;;
76640;SDS011;65538;50.798;6.064;2023-05-10T14:16:33;5.50;;;3.58;;
76640;SDS011;65538;50.798;6.064;2023-05-10T14:18:58;5.63;;;3.70;;
76640;SDS011;65538;50.798;6.064;2023-05-10T14:21:24;5.20;;;3.30;;
76640;SDS011;65538;50.798;6.064;2023-05-10T14:23:49;6.88;;;3.85;;
76640;SDS011;65538;50.798;6.064;2023-05-10T14:26:14;5.10;;;2.97;;
76640;SDS011;65538;50.798;6.064;2023-05-10T14:28:40;5.45;;;3.53;;
76640;SDS011;65538;50.798;6.064;2023-05-10T14:31:05;8.20;;;3.53;;
76640;SDS011;65538;50.798;6.064;2023-05-10T14:33:31;7.40;;;4.15;;
76640;SDS011;65538;50.798;6.064;2023-05-10T14:35:56;9.73;;;4.13;;
76640;SDS011;65538;50.798;6.064;2023-05-10T14:38:21;8.65;;;2.97;;
76640;SDS011;65538;50.798;6.064;2023-05-10T14:40:47;7.23;;;4.30;;
76640;SDS011;65538;50.798;6.064;2023-05-10T14:43:12;6.70;;;3.83;;
76640;SDS011;65538;50.798;6.064;2023-05-10T14:45:37;6.93;;;3.93;;
76640;SDS011;65538;50.798;6.064;2023-05-10T14:48:02;7.13;;;3.90;;
76640;SDS011;65538;50.798;6.064;2023-05-10T14:50:29;7.13;;;4.35;;
76640;SDS011;65538;50.798;6.064;2023-05-10T14:52:55;10.20;;;4.63;;
76640;SDS011;65538;50.798;6.064;2023-05-10T14:55:20;8.03;;;4.33;;
76640;SDS011;65538;50.798;6.064;2023-05-10T14:57:45;6.33;;;3.53;;
76640;SDS011;65538;50.798;6.064;2023-05-10T15:00:12;8.05;;;4.07;;
76640;SDS011;65538;50.798;6.064;2023-05-10T15:02:37;8.60;;;3.95;;
76640;SDS011;65538;50.798;6.064;2023-05-10T15:05:03;6.00;;;3.33;;
76640;SDS011;65538;50.798;6.064;2023-05-10T15:07:28;8.32;;;3.63;;